Time;durP1;ratioP1;P1;durP2;ratioP2;P2;SDS_P1;SDS_P2;PMS_P1;PMS_P2;Temp;Humidity;BMP_temperature;BMP_pressure;BME280_temperature;BME280_humidity;BME280_pressure;Samples;Min_cycle;Max_cycle;Signal;HPM_P1;HPM_P2
2022/11/07 00:02:16;;;;;;;10.43;7.25;;;12.40;88.70;;;;;;5007335;28;20244;-71
2022/11/07 00:04:42;;;;;;;8.90;6.63;;;12.40;88.70;;;;;;5006439;28;20196;-71
2022/11/07 00:07:08;;;;;;;8.63;6.93;;;12.30;88.70;;;;;;5005549;28;20181;-70
2022/11/07 00:09:34;;;;;;;14.18;6.35;;;12.30;88.60;;;;;;5005673;28;20185;-70
2022/11/07 00:12:00;;;;;;;9.55;7.07;;;12.30;88.90;;;;;;5007862;28;20547;-71
2022/11/07 00:14:25;;;;;;;10.90;7.30;;;12.30;89.50;;;;;;4987364;28;20936;-71
2022/11/07 00:16:51;;;;;;;9.98;6.72;;;12.30;90.10;;;;;;5007062;28;20185;-71
2022/11/07 00:19:19;;;;;;;10.23;6.80;;;12.20;89.30;;;;;;5006674;28;20184;-71
2022/11/07 00:21:46;;;;;;;9.20;6.70;;;12.20;90.10;;;;;;5005761;28;20716;-71
2022/11/07 00:24:12;;;;;;;9.57;7.10;;;12.20;90.50;;;;;;5006716;28;20203;-70
2022/11/07 00:26:38;;;;;;;9.68;7.65;;;12.10;90.30;;;;;;5006310;28;20208;-70
2022/11/07 00:29:05;;;;;;;9.90;6.47;;;12.10;90.00;;;;;;5004819;28;20193;-71
2022/11/07 00:31:31;;;;;;;8.00;6.75;;;12.00;90.40;;;;;;5003758;28;20181;-70
2022/11/07 00:33:57;;;;;;;8.88;6.60;;;12.00;90.10;;;;;;5007138;28;20185;-71
2022/11/07 00:36:24;;;;;;;10.98;7.53;;;12.00;89.90;;;;;;5006625;28;20969;-69
2022/11/07 00:38:50;;;;;;;10.38;6.93;;;11.90;90.50;;;;;;5003577;28;20189;-71
2022/11/07 00:41:16;;;;;;;10.60;7.15;;;11.80;90.60;;;;;;5004158;28;20196;-71
2022/11/07 00:43:42;;;;;;;11.68;7.60;;;11.80;90.10;;;;;;5005395;28;20678;-71
2022/11/07 00:46:09;;;;;;;10.93;7.40;;;11.80;90.00;;;;;;5005182;28;20205;-71
2022/11/07 00:48:35;;;;;;;11.80;7.93;;;11.80;90.20;;;;;;5004173;28;20196;-71
2022/11/07 00:51:05;;;;;;;10.23;6.95;;;11.80;90.20;;;;;;4987935;28;20670;-71
2022/11/07 00:53:31;;;;;;;13.20;7.40;;;11.80;90.00;;;;;;5001980;28;20191;-71
2022/11/07 00:56:05;;;;;;;8.57;6.03;;;11.80;90.30;;;;;;5004615;28;20192;-70
2022/11/07 00:58:31;;;;;;;12.38;8.00;;;11.80;90.20;;;;;;5006434;28;20189;-71
2022/11/07 01:00:57;;;;;;;7.85;6.57;;;11.80;90.40;;;;;;5006070;28;20328;-71
2022/11/07 01:06:08;;;;;;;13.38;7.05;;;11.70;91.90;;;;;;5004344;28;20200;-70
2022/11/07 01:08:34;;;;;;;9.70;7.65;;;11.60;91.50;;;;;;5005315;28;20635;-71
2022/11/07 01:11:04;;;;;;;12.90;6.93;;;11.60;91.80;;;;;;5004761;28;20196;-72
2022/11/07 01:13:30;;;;;;;7.13;6.43;;;11.60;91.00;;;;;;5003676;28;20662;-72
2022/11/07 01:15:56;;;;;;;12.07;7.25;;;11.60;91.10;;;;;;5005464;28;20185;-70
2022/11/07 01:18:21;;;;;;;12.43;7.57;;;11.60;91.70;;;;;;5006786;28;20181;-70
2022/11/07 01:20:51;;;;;;;11.27;7.65;;;11.50;91.00;;;;;;5005728;28;20185;-70
2022/11/07 01:23:17;;;;;;;8.50;6.43;;;11.50;91.10;;;;;;5005273;28;20716;-70
2022/11/07 01:25:43;;;;;;;7.38;6.65;;;11.40;91.00;;;;;;5005844;28;20220;-70
2022/11/07 01:28:10;;;;;;;8.57;6.85;;;11.40;90.60;;;;;;5004627;28;20977;-71
2022/11/07 01:30:40;;;;;;;8.23;6.90;;;11.40;90.50;;;;;;5005410;28;20185;-70
2022/11/07 01:33:06;;;;;;;11.50;6.75;;;11.40;90.60;;;;;;5005037;28;20701;-69
2022/11/07 01:35:32;;;;;;;8.82;7.47;;;11.40;90.60;;;;;;5004604;28;20209;-70
2022/11/07 01:37:58;;;;;;;8.10;7.10;;;11.40;90.60;;;;;;5004592;28;20185;-71
2022/11/07 01:40:24;;;;;;;10.85;7.28;;;11.40;90.80;;;;;;5004440;28;20192;-71
2022/11/07 01:42:49;;;;;;;8.02;6.78;;;11.40;90.90;;;;;;5002686;28;20217;-70
2022/11/07 01:45:27;;;;;;;10.23;6.78;;;11.30;91.40;;;;;;5003066;28;20276;-71
2022/11/07 01:47:57;;;;;;;9.13;6.32;;;11.40;92.00;;;;;;5003025;28;20189;-71
2022/11/07 01:50:23;;;;;;;9.90;6.93;;;11.30;92.00;;;;;;5003781;28;20181;-72
2022/11/07 01:52:51;;;;;;;12.30;7.63;;;11.20;92.50;;;;;;5003977;28;20189;-70
2022/11/07 01:55:22;;;;;;;10.18;7.30;;;11.20;92.40;;;;;;5002865;28;20188;-70
2022/11/07 01:57:50;;;;;;;12.13;8.07;;;11.20;93.10;;;;;;4985746;28;20837;-70
2022/11/07 02:00:19;;;;;;;12.05;7.55;;;11.10;94.00;;;;;;5002241;28;20233;-71
2022/11/07 02:02:49;;;;;;;8.93;7.63;;;11.00;94.30;;;;;;5003043;28;20208;-69
2022/11/07 02:05:23;;;;;;;10.82;7.68;;;11.00;94.20;;;;;;5005943;28;20190;-69
2022/11/07 02:07:49;;;;;;;11.32;7.32;;;11.00;93.30;;;;;;5003083;28;20216;-71
2022/11/07 02:10:15;;;;;;;13.90;7.75;;;11.00;92.80;;;;;;5001743;28;20728;-71
2022/11/07 02:12:42;;;;;;;13.63;7.60;;;11.00;92.50;;;;;;5003526;28;20248;-71
2022/11/07 02:15:09;;;;;;;13.05;7.85;;;11.00;92.30;;;;;;5001306;28;20184;-70
2022/11/07 02:17:35;;;;;;;18.02;7.63;;;10.90;92.00;;;;;;5002036;28;20702;-70
2022/11/07 02:20:00;;;;;;;12.07;8.05;;;11.00;93.10;;;;;;5001803;28;20173;-70
2022/11/07 02:22:49;;;;;;;14.88;7.80;;;10.90;92.50;;;;;;5002687;28;20219;-71
2022/11/07 02:25:17;;;;;;;11.30;7.97;;;10.90;92.80;;;;;;4999961;28;20192;-71
2022/11/07 02:27:44;;;;;;;11.07;7.78;;;10.90;93.30;;;;;;5003724;28;20181;-71
2022/11/07 02:30:14;;;;;;;12.70;7.85;;;10.90;92.50;;;;;;5003149;28;20331;-70
2022/11/07 02:32:40;;;;;;;12.50;8.30;;;10.80;92.60;;;;;;5001775;28;20180;-70
2022/11/07 02:35:39;;;;;;;16.83;8.35;;;10.80;93.10;;;;;;4986387;28;20543;-70
2022/11/07 02:38:34;;;;;;;14.00;7.70;;;10.80;93.00;;;;;;5003048;28;20181;-71
2022/11/07 02:41:05;;;;;;;16.77;8.07;;;10.80;93.10;;;;;;5004956;28;20255;-70
2022/11/07 02:43:33;;;;;;;8.73;7.82;;;10.70;93.10;;;;;;5003442;28;20231;-71
2022/11/07 02:46:04;;;;;;;11.60;8.05;;;10.70;93.00;;;;;;5001096;28;20268;-71
2022/11/07 02:48:32;;;;;;;13.48;8.20;;;10.60;93.10;;;;;;5002243;28;20184;-70
2022/11/07 02:50:58;;;;;;;13.87;7.37;;;10.60;93.70;;;;;;5002601;28;20184;-71
2022/11/07 02:53:24;;;;;;;11.02;7.35;;;10.60;93.70;;;;;;5000598;28;20184;-71
2022/11/07 02:55:50;;;;;;;12.23;7.27;;;10.60;93.50;;;;;;5002416;28;20195;-70
2022/11/07 02:58:16;;;;;;;10.32;8.43;;;10.60;92.80;;;;;;5005593;28;20791;-71
2022/11/07 03:00:41;;;;;;;14.35;7.43;;;10.50;92.50;;;;;;5006582;28;20743;-71
2022/11/07 03:03:07;;;;;;;14.60;8.27;;;10.50;92.20;;;;;;5005719;28;20242;-72
2022/11/07 03:05:33;;;;;;;11.52;8.15;;;10.50;92.50;;;;;;5008325;28;20728;-70
2022/11/07 03:07:58;;;;;;;14.30;7.67;;;10.50;92.40;;;;;;5005568;28;20920;-70
2022/11/07 03:10:24;;;;;;;12.07;7.93;;;10.50;92.50;;;;;;5006972;28;20189;-70
2022/11/07 03:12:50;;;;;;;16.80;7.63;;;10.40;92.20;;;;;;5009238;28;20610;-71
2022/11/07 03:15:15;;;;;;;9.63;6.87;;;10.40;92.00;;;;;;5007906;28;20181;-71
2022/11/07 03:17:41;;;;;;;10.25;7.25;;;10.40;92.20;;;;;;5006524;28;20192;-70
2022/11/07 03:20:08;;;;;;;11.73;7.83;;;10.40;92.20;;;;;;4991035;28;20658;-72
2022/11/07 03:22:33;;;;;;;9.52;7.57;;;10.30;92.10;;;;;;5005668;28;20200;-71
2022/11/07 03:24:59;;;;;;;7.90;6.97;;;10.30;92.20;;;;;;5007972;28;20196;-69
2022/11/07 03:27:25;;;;;;;11.65;7.53;;;10.30;92.40;;;;;;5008571;28;20172;-70
2022/11/07 03:29:50;;;;;;;9.43;7.40;;;10.30;92.80;;;;;;5005579;28;20240;-70
2022/11/07 03:32:16;;;;;;;11.70;7.63;;;10.30;92.80;;;;;;5005204;28;20188;-71
2022/11/07 03:34:42;;;;;;;10.98;7.45;;;10.20;93.10;;;;;;5007831;28;20187;-71
2022/11/07 03:37:07;;;;;;;15.73;8.47;;;10.20;93.50;;;;;;5006479;28;20181;-70
2022/11/07 03:39:33;;;;;;;14.48;6.82;;;10.20;94.00;;;;;;5004937;28;20698;-72
2022/11/07 03:41:58;;;;;;;12.07;7.15;;;10.20;94.10;;;;;;5006223;28;20185;-71
2022/11/07 03:44:24;;;;;;;7.38;6.68;;;10.20;93.80;;;;;;5006029;28;20199;-70
2022/11/07 03:46:50;;;;;;;6.80;6.13;;;10.20;93.50;;;;;;5006874;28;20181;-71
2022/11/07 03:49:15;;;;;;;9.40;5.87;;;10.20;93.40;;;;;;5005727;28;20215;-69
2022/11/07 03:51:41;;;;;;;8.97;5.90;;;10.20;93.30;;;;;;5008265;28;20216;-71
2022/11/07 03:54:07;;;;;;;8.83;6.83;;;10.20;92.90;;;;;;5004663;28;20181;-70
2022/11/07 03:56:32;;;;;;;6.73;5.97;;;10.10;93.30;;;;;;5007032;28;20193;-70
2022/11/07 03:58:58;;;;;;;7.00;6.37;;;10.10;93.30;;;;;;5008280;28;20192;-70
2022/11/07 04:01:23;;;;;;;11.50;6.20;;;10.10;93.30;;;;;;5005738;28;20247;-71
2022/11/07 04:03:49;;;;;;;9.03;6.33;;;10.00;93.10;;;;;;5005396;28;20263;-70
2022/11/07 04:06:15;;;;;;;8.02;6.68;;;10.00;93.80;;;;;;5006839;28;20189;-70
2022/11/07 04:08:40;;;;;;;14.30;6.93;;;10.00;94.00;;;;;;5004899;28;20193;-70
2022/11/07 04:11:06;;;;;;;14.73;6.77;;;10.00;93.90;;;;;;5005243;28;20181;-70
2022/11/07 04:19:03;;;;;;;7.10;6.27;;;10.00;94.10;;;;;;5005223;28;20207;-71
2022/11/07 04:21:28;;;;;;;11.40;6.07;;;10.00;94.10;;;;;;5005488;28;20224;-71
2022/11/07 04:23:54;;;;;;;11.18;6.45;;;10.00;93.70;;;;;;5003965;28;20309;-71
2022/11/07 04:29:04;;;;;;;8.77;6.07;;;10.10;93.90;;;;;;5005352;28;20191;-71
2022/11/07 04:31:30;;;;;;;7.43;5.97;;;10.10;93.70;;;;;;5004438;28;20185;-70
2022/11/07 04:33:55;;;;;;;6.40;5.68;;;10.10;93.60;;;;;;5006724;28;20188;-70
2022/11/07 04:36:21;;;;;;;7.03;6.37;;;10.20;94.00;;;;;;5005482;28;20181;-71
2022/11/07 04:38:47;;;;;;;8.40;6.70;;;10.20;94.10;;;;;;5004880;28;20185;-71
2022/11/07 04:41:22;;;;;;;8.03;6.17;;;10.20;93.80;;;;;;5007436;28;20741;-71
2022/11/07 04:43:48;;;;;;;6.03;5.50;;;10.20;93.70;;;;;;5003422;28;20576;-71
2022/11/07 04:46:15;;;;;;;7.40;5.57;;;10.30;93.80;;;;;;5006337;28;20192;-71
2022/11/07 04:48:40;;;;;;;18.50;6.53;;;10.30;93.70;;;;;;5004170;28;20208;-71
2022/11/07 04:51:12;;;;;;;8.15;5.25;;;10.30;93.70;;;;;;5004822;28;20177;-71
2022/11/07 04:53:38;;;;;;;9.57;5.93;;;10.40;93.60;;;;;;5000997;28;20200;-70
2022/11/07 04:56:04;;;;;;;7.82;5.93;;;10.30;93.70;;;;;;5003600;28;20369;-69
2022/11/07 04:58:29;;;;;;;7.40;5.60;;;10.20;93.30;;;;;;5008031;28;20554;-71
2022/11/07 05:00:55;;;;;;;5.75;5.20;;;10.20;94.00;;;;;;5005918;28;20264;-69
2022/11/07 05:03:21;;;;;;;8.57;5.93;;;10.20;94.30;;;;;;5005555;28;20712;-70
2022/11/07 05:05:46;;;;;;;7.40;4.82;;;10.20;93.90;;;;;;5002427;28;20570;-69
2022/11/07 05:08:12;;;;;;;6.47;5.27;;;10.20;93.70;;;;;;5002303;28;20694;-70
2022/11/07 05:10:37;;;;;;;10.23;6.32;;;10.20;93.60;;;;;;5005920;28;20189;-70
2022/11/07 05:13:03;;;;;;;8.57;5.87;;;10.30;93.70;;;;;;5004329;28;20219;-69
2022/11/07 05:15:29;;;;;;;7.07;5.20;;;10.30;93.60;;;;;;5003121;28;20220;-71
2022/11/07 05:17:54;;;;;;;8.67;5.57;;;10.30;93.30;;;;;;5005453;28;20246;-70
2022/11/07 05:20:27;;;;;;;7.03;5.60;;;10.40;93.50;;;;;;5004478;28;20236;-71
2022/11/07 05:23:11;;;;;;;8.67;5.20;;;10.40;93.00;;;;;;4986235;28;20204;-71
2022/11/07 05:26:00;;;;;;;8.30;5.93;;;10.40;93.30;;;;;;5004997;28;20272;-72
2022/11/07 05:28:30;;;;;;;5.67;5.20;;;10.50;93.00;;;;;;4998345;28;20251;-69
2022/11/07 05:31:01;;;;;;;8.18;6.75;;;10.50;93.00;;;;;;4996359;28;20225;-68
2022/11/07 05:33:28;;;;;;;7.93;6.38;;;10.60;93.40;;;;;;5004935;28;20212;-70
2022/11/07 05:35:53;;;;;;;7.97;6.25;;;10.60;93.40;;;;;;5001979;28;20189;-67
2022/11/07 05:38:19;;;;;;;6.68;6.10;;;10.70;93.30;;;;;;5003868;28;20177;-70
2022/11/07 05:40:45;;;;;;;9.77;7.22;;;10.70;93.00;;;;;;5004128;28;20188;-68
2022/11/07 05:43:13;;;;;;;7.43;5.95;;;10.70;92.60;;;;;;5003282;28;20608;-70
2022/11/07 05:45:40;;;;;;;9.20;6.10;;;10.70;92.60;;;;;;5000068;28;20191;-68
2022/11/07 05:48:08;;;;;;;9.25;6.25;;;10.80;92.50;;;;;;4985374;28;20217;-70
2022/11/07 05:50:34;;;;;;;7.20;6.47;;;10.80;92.70;;;;;;5001681;28;20644;-69
2022/11/07 05:53:01;;;;;;;10.32;6.70;;;10.90;92.60;;;;;;5005070;28;20180;-69
2022/11/07 05:55:27;;;;;;;10.80;6.93;;;10.90;92.20;;;;;;5003037;28;20185;-69
2022/11/07 05:57:53;;;;;;;9.60;6.70;;;10.90;92.40;;;;;;4997889;28;22338;-69
2022/11/07 06:00:18;;;;;;;12.20;7.50;;;11.00;92.70;;;;;;5001984;28;20701;-70
2022/11/07 06:02:52;;;;;;;10.20;7.07;;;11.10;92.90;;;;;;5002965;28;20205;-71
2022/11/07 06:05:18;;;;;;;9.35;6.50;;;11.20;92.70;;;;;;5000594;28;20767;-71
2022/11/07 06:07:43;;;;;;;12.00;6.50;;;11.20;92.20;;;;;;5002276;28;20197;-71
2022/11/07 06:10:09;;;;;;;8.63;7.07;;;11.20;91.90;;;;;;4986698;28;20276;-71
2022/11/07 06:12:35;;;;;;;6.20;5.60;;;11.20;92.10;;;;;;5001964;28;20287;-71
2022/11/07 06:15:00;;;;;;;12.90;6.40;;;11.40;92.60;;;;;;5002772;28;20181;-71
2022/11/07 06:17:26;;;;;;;9.80;7.47;;;11.40;92.30;;;;;;5003442;28;20177;-71
2022/11/07 06:19:51;;;;;;;8.25;6.38;;;11.50;92.20;;;;;;5004433;28;20188;-71
2022/11/07 06:22:17;;;;;;;9.25;6.25;;;11.60;92.10;;;;;;5000321;28;20207;-72
2022/11/07 06:24:43;;;;;;;8.73;7.05;;;11.70;92.40;;;;;;5001401;28;20209;-69
2022/11/07 06:27:08;;;;;;;7.78;7.03;;;11.80;92.10;;;;;;5003011;28;20204;-70
2022/11/07 06:29:34;;;;;;;9.98;7.05;;;11.90;91.70;;;;;;5003012;28;20181;-70
2022/11/07 06:32:00;;;;;;;11.55;6.70;;;12.00;92.10;;;;;;5001864;28;20173;-69
2022/11/07 06:34:25;;;;;;;10.50;7.80;;;12.10;91.80;;;;;;5000275;28;20270;-72
2022/11/07 06:36:53;;;;;;;17.50;7.85;;;12.10;91.60;;;;;;5001131;28;20192;-71
2022/11/07 06:39:19;;;;;;;9.57;7.78;;;12.20;91.30;;;;;;5002894;28;20192;-72
2022/11/07 06:41:45;;;;;;;18.25;7.93;;;12.30;91.70;;;;;;5003152;28;20185;-70
2022/11/07 06:44:10;;;;;;;13.85;7.45;;;12.40;91.90;;;;;;5002760;28;20219;-71
2022/11/07 06:46:36;;;;;;;11.88;7.55;;;12.40;91.40;;;;;;5003136;28;20193;-71
2022/11/07 06:49:01;;;;;;;10.13;7.82;;;12.40;91.00;;;;;;5000570;28;20185;-72
2022/11/07 06:51:27;;;;;;;11.82;8.40;;;12.50;91.20;;;;;;5002362;28;20186;-71
2022/11/07 06:53:53;;;;;;;12.77;8.25;;;12.50;91.00;;;;;;5002789;28;20192;-72
2022/11/07 06:56:19;;;;;;;14.15;7.85;;;12.60;90.80;;;;;;5000310;28;20199;-71
2022/11/07 06:58:45;;;;;;;14.98;9.25;;;12.60;90.70;;;;;;5001702;28;20620;-71
2022/11/07 07:01:15;;;;;;;12.23;8.70;;;12.70;90.80;;;;;;5002331;28;20263;-71
2022/11/07 07:03:42;;;;;;;10.73;8.43;;;12.80;91.20;;;;;;5003048;28;20217;-70
2022/11/07 07:06:11;;;;;;;18.38;9.15;;;12.90;90.80;;;;;;5001886;28;20188;-70
2022/11/07 07:08:37;;;;;;;13.25;9.82;;;12.90;90.50;;;;;;5003436;28;20230;-70
2022/11/07 07:11:06;;;;;;;13.48;7.93;;;13.00;90.30;;;;;;5003389;28;20204;-73
2022/11/07 07:13:32;;;;;;;14.23;9.32;;;13.00;90.50;;;;;;5001486;28;20169;-70
2022/11/07 07:15:58;;;;;;;13.05;8.75;;;13.10;90.20;;;;;;5001688;28;20247;-70
2022/11/07 07:18:25;;;;;;;13.70;8.75;;;13.10;90.50;;;;;;5001253;28;20191;-72
2022/11/07 07:20:54;;;;;;;12.70;8.55;;;13.20;90.30;;;;;;5001078;28;20207;-72
2022/11/07 07:23:20;;;;;;;17.30;9.43;;;13.20;90.20;;;;;;4999274;28;20706;-71
2022/11/07 07:25:46;;;;;;;12.75;9.40;;;13.20;89.70;;;;;;4984524;28;20185;-71
2022/11/07 07:28:12;;;;;;;15.30;9.35;;;13.20;89.70;;;;;;5001740;28;20611;-72
2022/11/07 07:30:38;;;;;;;15.85;9.80;;;13.20;89.70;;;;;;5000516;28;20236;-71
2022/11/07 07:33:04;;;;;;;13.60;9.38;;;13.20;89.80;;;;;;5002665;28;20232;-71
2022/11/07 07:35:30;;;;;;;14.90;9.32;;;13.40;90.30;;;;;;5003203;28;20629;-72
2022/11/07 07:37:56;;;;;;;17.60;10.93;;;13.40;89.80;;;;;;5002245;28;20186;-70
2022/11/07 07:40:22;;;;;;;14.23;10.00;;;13.50;90.00;;;;;;5002519;28;20691;-70
2022/11/07 07:42:48;;;;;;;19.48;10.02;;;13.50;90.10;;;;;;5004993;28;20209;-71
2022/11/07 07:45:14;;;;;;;15.73;10.63;;;13.60;89.30;;;;;;5005760;28;20196;-72
2022/11/07 07:47:41;;;;;;;12.77;9.88;;;13.70;89.50;;;;;;5005828;28;20188;-71
2022/11/07 07:50:08;;;;;;;18.33;11.00;;;13.80;89.40;;;;;;5004678;28;20299;-70
2022/11/07 07:52:34;;;;;;;16.70;10.38;;;13.80;89.70;;;;;;5003794;28;20201;-71
2022/11/07 07:55:00;;;;;;;20.50;10.60;;;13.90;89.40;;;;;;5005470;28;20189;-71
2022/11/07 07:57:26;;;;;;;16.63;10.60;;;14.10;89.40;;;;;;5005919;28;20208;-71
2022/11/07 07:59:52;;;;;;;18.17;10.32;;;14.20;89.40;;;;;;5002557;28;20288;-70
2022/11/07 08:02:17;;;;;;;17.85;10.38;;;14.30;89.30;;;;;;5005747;28;20213;-71
2022/11/07 08:04:43;;;;;;;22.45;11.45;;;14.50;89.10;;;;;;5005017;28;20580;-71
2022/11/07 08:07:09;;;;;;;18.83;10.63;;;14.60;88.80;;;;;;5005784;28;20192;-71
2022/11/07 08:09:35;;;;;;;19.70;11.13;;;14.90;87.90;;;;;;5004304;28;20267;-72
2022/11/07 08:12:05;;;;;;;16.98;10.98;;;15.00;88.20;;;;;;5004816;28;20181;-70
2022/11/07 08:14:31;;;;;;;17.33;9.85;;;15.10;88.00;;;;;;4989009;28;20188;-71
2022/11/07 08:16:57;;;;;;;15.45;9.77;;;15.10;87.30;;;;;;5005626;28;20723;-70
2022/11/07 08:19:23;;;;;;;15.60;9.80;;;15.30;87.40;;;;;;5005108;28;20189;-71
2022/11/07 08:21:49;;;;;;;13.55;10.48;;;15.40;87.50;;;;;;5003581;28;20561;-71
2022/11/07 08:24:15;;;;;;;16.13;10.27;;;15.50;87.00;;;;;;4986352;28;20217;-72
2022/11/07 08:26:40;;;;;;;15.68;10.45;;;15.60;87.10;;;;;;5005394;28;20196;-71
2022/11/07 08:29:06;;;;;;;13.55;10.05;;;15.80;87.40;;;;;;5004502;28;20182;-71
2022/11/07 08:31:32;;;;;;;18.17;10.32;;;15.90;85.80;;;;;;5006311;28;20380;-71
2022/11/07 08:33:59;;;;;;;17.67;10.68;;;15.90;86.10;;;;;;5001839;28;20193;-72
2022/11/07 08:36:25;;;;;;;16.35;10.05;;;15.90;86.00;;;;;;5004894;28;20189;-70
2022/11/07 08:38:52;;;;;;;22.55;11.20;;;16.10;86.90;;;;;;5005162;28;20573;-72
2022/11/07 08:41:17;;;;;;;19.77;11.38;;;16.20;85.90;;;;;;5003590;28;20196;-70
2022/11/07 08:43:43;;;;;;;15.27;10.75;;;16.20;85.70;;;;;;5003926;28;20205;-71
2022/11/07 08:46:09;;;;;;;18.75;10.10;;;16.40;85.30;;;;;;5004909;28;20264;-71
2022/11/07 08:48:34;;;;;;;19.35;9.88;;;16.40;84.40;;;;;;5005070;28;20212;-71
2022/11/07 08:51:03;;;;;;;16.55;9.73;;;16.40;84.00;;;;;;5004598;28;20673;-71
2022/11/07 08:53:29;;;;;;;14.80;9.45;;;16.50;84.80;;;;;;4988660;28;20363;-71
2022/11/07 08:56:07;;;;;;;17.35;9.35;;;16.60;84.30;;;;;;4986955;28;20200;-71
2022/11/07 08:58:34;;;;;;;17.98;9.18;;;16.60;84.40;;;;;;5003849;28;20259;-71
2022/11/07 09:00:59;;;;;;;16.33;8.98;;;16.70;84.80;;;;;;5003755;28;20239;-71
2022/11/07 09:03:25;;;;;;;18.42;10.43;;;16.80;84.50;;;;;;5003385;28;20204;-71
2022/11/07 09:05:52;;;;;;;25.48;11.30;;;16.90;84.00;;;;;;5003763;28;20314;-72
2022/11/07 09:08:18;;;;;;;16.38;10.57;;;17.10;84.40;;;;;;5005014;28;20248;-71
2022/11/07 09:10:44;;;;;;;16.85;11.05;;;17.50;83.20;;;;;;5005060;28;20578;-71
2022/11/07 09:13:09;;;;;;;21.05;10.65;;;18.00;83.70;;;;;;5006265;28;20189;-71
2022/11/07 09:15:35;;;;;;;19.42;11.30;;;18.50;82.60;;;;;;5002938;28;20663;-71
2022/11/07 09:18:05;;;;;;;17.48;10.48;;;19.10;81.00;;;;;;5004181;28;20234;-71
2022/11/07 09:20:32;;;;;;;18.23;10.55;;;19.60;79.30;;;;;;5002863;28;20277;-72
2022/11/07 09:22:58;;;;;;;17.10;11.02;;;20.00;78.00;;;;;;5004179;28;20208;-71
2022/11/07 09:25:25;;;;;;;20.13;12.15;;;20.50;75.30;;;;;;5002403;28;20546;-71
2022/11/07 09:27:51;;;;;;;20.35;10.10;;;20.90;75.60;;;;;;5003038;28;20187;-71
2022/11/07 09:30:17;;;;;;;17.48;10.73;;;21.40;73.00;;;;;;5001011;28;20189;-70
2022/11/07 09:32:43;;;;;;;20.45;11.65;;;21.90;71.20;;;;;;5002403;28;20184;-71
2022/11/07 09:35:09;;;;;;;20.80;11.25;;;22.30;71.60;;;;;;5005266;28;20896;-71
2022/11/07 09:37:38;;;;;;;19.10;10.68;;;22.80;70.40;;;;;;5003181;28;20703;-70
2022/11/07 09:40:04;;;;;;;10.27;8.35;;;23.30;68.40;;;;;;4984888;28;20185;-70
2022/11/07 09:43:14;;;;;;;12.00;9.35;;;23.80;66.50;;;;;;5002958;28;20213;-70
2022/11/07 09:46:08;;;;;;;8.57;7.65;;;24.40;66.00;;;;;;4963079;28;20683;-72
2022/11/07 09:48:52;;;;;;;11.93;8.45;;;24.80;63.30;;;;;;4962723;28;20699;-71
2022/11/07 09:51:37;;;;;;;10.90;8.77;;;24.90;63.90;;;;;;4945650;28;20684;-71
2022/11/07 09:54:25;;;;;;;13.95;8.50;;;24.70;64.60;;;;;;4962383;28;20202;-72
2022/11/07 09:56:51;;;;;;;10.80;8.57;;;24.40;64.40;;;;;;4960654;28;20646;-71
2022/11/07 09:59:45;;;;;;;9.73;8.35;;;24.10;62.80;;;;;;4962639;28;20746;-71
2022/11/07 10:02:16;;;;;;;9.20;8.25;;;23.70;64.00;;;;;;4923286;29;20682;-72
2022/11/07 10:04:43;;;;;;;10.95;8.25;;;23.30;63.30;;;;;;4920062;29;20257;-71
2022/11/07 10:07:34;;;;;;;9.55;8.23;;;23.00;64.30;;;;;;4921060;29;20279;-73
2022/11/07 10:10:16;;;;;;;12.05;8.02;;;22.80;65.00;;;;;;4923026;29;21149;-70
2022/11/07 10:12:59;;;;;;;11.90;8.25;;;22.70;65.50;;;;;;4922839;29;20819;-71
2022/11/07 10:15:48;;;;;;;13.10;7.85;;;22.40;64.90;;;;;;4922115;29;20970;-71
2022/11/07 10:18:22;;;;;;;10.05;8.25;;;22.30;66.10;;;;;;4923463;29;20199;-71
2022/11/07 10:21:20;;;;;;;10.35;7.72;;;22.40;64.90;;;;;;4923452;29;20191;-72
2022/11/07 10:24:01;;;;;;;9.88;7.72;;;22.50;64.90;;;;;;4931799;29;20223;-71
2022/11/07 10:26:29;;;;;;;11.55;7.63;;;22.70;65.30;;;;;;4929728;29;20199;-72
2022/11/07 10:29:10;;;;;;;10.05;7.60;;;23.10;65.70;;;;;;4925592;29;20713;-71
2022/11/07 10:31:42;;;;;;;9.18;6.63;;;23.70;63.80;;;;;;4935249;29;20226;-73
2022/11/07 10:34:40;;;;;;;10.15;7.13;;;24.20;63.70;;;;;;4926877;29;20246;-73
2022/11/07 10:37:08;;;;;;;7.72;6.38;;;24.60;61.60;;;;;;4922616;29;20200;-71
2022/11/07 10:39:34;;;;;;;9.07;7.05;;;25.00;61.90;;;;;;4975839;28;20189;-72
2022/11/07 10:42:14;;;;;;;8.13;6.60;;;25.40;60.60;;;;;;5002733;28;20208;-73
2022/11/07 10:44:41;;;;;;;8.45;6.88;;;25.80;58.20;;;;;;5001834;28;20195;-74
2022/11/07 10:47:21;;;;;;;7.72;6.97;;;25.90;59.80;;;;;;5002170;28;20244;-71
2022/11/07 10:49:59;;;;;;;9.65;6.05;;;26.20;60.70;;;;;;5001239;28;20445;-69
2022/11/07 10:52:26;;;;;;;6.65;5.95;;;26.60;59.70;;;;;;4996297;28;20181;-70
2022/11/07 10:55:05;;;;;;;9.23;6.80;;;26.90;59.80;;;;;;4999982;28;20192;-71
2022/11/07 10:57:34;;;;;;;7.82;6.47;;;27.30;58.70;;;;;;4999292;28;20216;-71
2022/11/07 11:00:00;;;;;;;9.63;6.38;;;27.70;58.10;;;;;;5001047;28;20177;-71
2022/11/07 11:02:29;;;;;;;7.45;6.78;;;27.90;57.80;;;;;;5002064;28;20216;-69
2022/11/07 11:05:02;;;;;;;10.52;6.50;;;28.00;55.50;;;;;;4999014;28;20193;-70
2022/11/07 11:07:39;;;;;;;15.88;7.40;;;28.10;57.30;;;;;;4999723;28;20192;-70
2022/11/07 11:10:21;;;;;;;7.28;6.75;;;28.10;57.00;;;;;;4999415;28;20186;-69
2022/11/07 11:12:48;;;;;;;8.52;7.47;;;28.30;55.80;;;;;;5002690;28;20185;-69
2022/11/07 11:15:18;;;;;;;8.95;8.05;;;28.20;55.80;;;;;;5001863;28;20196;-70
2022/11/07 11:17:44;;;;;;;8.55;7.72;;;28.20;58.00;;;;;;5002636;28;20239;-70
2022/11/07 11:20:35;;;;;;;8.30;7.32;;;28.20;55.90;;;;;;4985809;28;20191;-70
2022/11/07 11:23:04;;;;;;;7.13;6.53;;;28.20;56.30;;;;;;5004585;28;20596;-70
2022/11/07 11:25:30;;;;;;;10.18;7.63;;;28.40;57.10;;;;;;5005238;28;20585;-70
2022/11/07 11:28:06;;;;;;;7.85;6.88;;;28.60;55.30;;;;;;5003726;28;20194;-71
2022/11/07 11:30:35;;;;;;;8.68;7.38;;;28.80;54.90;;;;;;5002907;28;20645;-70
2022/11/07 11:33:15;;;;;;;10.65;7.85;;;28.90;54.30;;;;;;5003964;28;20216;-71
2022/11/07 11:35:53;;;;;;;9.90;7.05;;;29.10;56.40;;;;;;5004462;28;20204;-70
2022/11/07 11:38:36;;;;;;;8.85;6.88;;;29.40;52.80;;;;;;5003524;28;20675;-70
2022/11/07 11:41:40;;;;;;;13.13;8.00;;;29.40;54.80;;;;;;4986917;28;20690;-71
2022/11/07 11:44:17;;;;;;;8.10;7.20;;;29.70;54.40;;;;;;5002446;28;20224;-71
2022/11/07 11:47:03;;;;;;;11.80;7.40;;;29.60;54.30;;;;;;5004993;28;20189;-69
2022/11/07 11:49:38;;;;;;;7.22;6.55;;;29.70;52.40;;;;;;5001952;28;20185;-70
2022/11/07 11:52:15;;;;;;;7.30;6.60;;;29.70;53.30;;;;;;5003146;28;20182;-70
2022/11/07 11:54:43;;;;;;;8.10;7.32;;;29.60;52.50;;;;;;5000017;28;20211;-70
2022/11/07 11:57:26;;;;;;;8.30;7.43;;;29.70;52.40;;;;;;5002235;28;20232;-70
2022/11/07 12:00:08;;;;;;;8.02;6.78;;;29.70;51.90;;;;;;5003397;28;20241;-70
2022/11/07 12:03:12;;;;;;;7.78;6.97;;;29.50;52.90;;;;;;4987609;28;20212;-70
2022/11/07 12:06:19;;;;;;;7.40;6.75;;;29.20;51.80;;;;;;5001419;28;20282;-70
2022/11/07 12:09:01;;;;;;;8.88;7.25;;;29.00;52.40;;;;;;4929305;29;20252;-70
2022/11/07 12:11:46;;;;;;;10.57;7.88;;;29.00;54.10;;;;;;4922730;29;20978;-70
2022/11/07 12:14:31;;;;;;;10.20;7.45;;;28.90;53.30;;;;;;4932680;29;20200;-70
2022/11/07 12:17:23;;;;;;;10.93;7.60;;;28.90;52.20;;;;;;4934274;29;20719;-70
2022/11/07 12:20:04;;;;;;;10.50;7.60;;;28.90;52.80;;;;;;4928610;29;20192;-70
2022/11/07 12:22:50;;;;;;;12.93;7.13;;;28.90;53.20;;;;;;4934450;29;20230;-69
2022/11/07 12:25:34;;;;;;;10.32;7.85;;;28.60;54.80;;;;;;4932143;29;20359;-69
2022/11/07 12:28:14;;;;;;;8.20;7.38;;;28.30;53.90;;;;;;4929156;29;20191;-69
2022/11/07 12:30:58;;;;;;;7.97;7.03;;;28.20;53.80;;;;;;4929225;29;20258;-71
2022/11/07 12:34:09;;;;;;;7.45;6.75;;;28.20;54.50;;;;;;4939655;29;20301;-71
2022/11/07 12:36:36;;;;;;;10.48;7.07;;;28.20;53.80;;;;;;4882808;29;20284;-70
2022/11/07 12:39:11;;;;;;;8.48;7.55;;;28.20;54.00;;;;;;4878967;29;20765;-70
2022/11/07 12:41:57;;;;;;;14.10;7.47;;;28.10;53.50;;;;;;4880795;29;20200;-70
2022/11/07 12:44:54;;;;;;;8.25;7.00;;;28.00;54.90;;;;;;4896064;29;20294;-70
2022/11/07 12:47:28;;;;;;;8.73;7.72;;;28.10;53.60;;;;;;4913695;29;20255;-70
2022/11/07 12:49:54;;;;;;;9.30;7.78;;;28.10;56.50;;;;;;4912174;29;20189;-70
2022/11/07 12:52:32;;;;;;;8.32;7.53;;;28.00;54.70;;;;;;4905812;29;20232;-70
2022/11/07 12:55:12;;;;;;;9.02;7.78;;;27.70;54.80;;;;;;4909423;29;20298;-70
2022/11/07 12:57:39;;;;;;;8.35;7.28;;;27.60;54.50;;;;;;4910273;29;20305;-72
2022/11/07 13:00:20;;;;;;;8.93;7.53;;;27.60;55.00;;;;;;4913739;29;21288;-73
2022/11/07 13:03:05;;;;;;;8.75;8.00;;;27.40;55.20;;;;;;4914450;29;21101;-73
2022/11/07 13:05:53;;;;;;;8.73;7.80;;;27.30;55.80;;;;;;4916072;29;20207;-73
2022/11/07 13:08:35;;;;;;;9.73;7.30;;;27.20;56.90;;;;;;4913888;29;20231;-73